createdAt,value
2017-12-25T00:02:22.766Z,101367
2017-12-25T00:04:51.018Z,101374
2017-12-25T00:07:19.271Z,101379
2017-12-25T00:09:47.499Z,101366
2017-12-25T00:12:15.722Z,101367
2017-12-25T00:14:43.932Z,101371
2017-12-25T00:17:12.147Z,101363
2017-12-25T00:19:40.403Z,101362
2017-12-25T00:22:08.578Z,101359
2017-12-25T00:24:36.785Z,101365
2017-12-25T00:27:04.997Z,101364
2017-12-25T00:29:33.234Z,101372
2017-12-25T00:32:02.380Z,101360
2017-12-25T00:34:30.622Z,101364
2017-12-25T00:36:58.865Z,101351
2017-12-25T00:39:27.090Z,101346
2017-12-25T00:41:55.317Z,101352
2017-12-25T00:44:23.702Z,101357
2017-12-25T00:46:52.846Z,101350
2017-12-25T00:49:21.064Z,101358
2017-12-25T00:51:49.307Z,101361
2017-12-25T00:54:17.583Z,101360
2017-12-25T00:56:45.811Z,101339
2017-12-25T00:59:14.858Z,101346
2017-12-25T01:01:43.079Z,101359
2017-12-25T01:04:12.069Z,101359
2017-12-25T01:06:41.045Z,101350
2017-12-25T01:09:09.252Z,101363
2017-12-25T01:11:37.521Z,101349
2017-12-25T01:14:05.759Z,101358
2017-12-25T01:16:33.997Z,101359
2017-12-25T01:19:02.228Z,101351
2017-12-25T01:21:31.248Z,101347
2017-12-25T01:23:59.473Z,101361
2017-12-25T01:26:27.683Z,101349
2017-12-25T01:28:56.013Z,101357
2017-12-25T01:31:24.252Z,101346
2017-12-25T01:33:52.482Z,101348
2017-12-25T01:36:20.716Z,101332
2017-12-25T01:38:49.036Z,101348
2017-12-25T01:41:17.258Z,101336
2017-12-25T01:43:45.467Z,101331
2017-12-25T01:46:13.699Z,101338
2017-12-25T01:48:41.932Z,101337
2017-12-25T01:51:10.179Z,101340
2017-12-25T01:53:45.213Z,101337
2017-12-25T01:56:40.889Z,101337
2017-12-25T01:59:18.177Z,101342
2017-12-25T02:02:01.622Z,101335
2017-12-25T02:04:57.219Z,101336
2017-12-25T02:07:43.104Z,101337
2017-12-25T02:10:11.346Z,101331
2017-12-25T02:12:39.593Z,101330
2017-12-25T02:15:07.813Z,101325
2017-12-25T02:17:36.050Z,101321
2017-12-25T02:20:05.262Z,101301
2017-12-25T02:22:33.491Z,101306
2017-12-25T02:25:01.744Z,101313
2017-12-25T02:27:30.019Z,101320
2017-12-25T02:29:58.258Z,101311
2017-12-25T02:32:26.519Z,101319
2017-12-25T02:34:54.830Z,101315
2017-12-25T02:37:23.082Z,101307
2017-12-25T02:39:51.384Z,101304
2017-12-25T02:42:20.377Z,101306
2017-12-25T02:44:49.459Z,101304
2017-12-25T02:47:18.521Z,101303
2017-12-25T02:49:46.763Z,101294
2017-12-25T02:52:14.986Z,101297
2017-12-25T02:54:43.207Z,101293
2017-12-25T02:57:11.460Z,101290
2017-12-25T02:59:40.459Z,101287
2017-12-25T03:02:09.451Z,101287
2017-12-25T03:04:38.495Z,101290
2017-12-25T03:07:06.754Z,101301
2017-12-25T03:09:35.207Z,101287
2017-12-25T03:12:03.456Z,101290
2017-12-25T03:14:31.682Z,101294
2017-12-25T03:16:59.922Z,101292
2017-12-25T03:19:28.970Z,101294
2017-12-25T03:21:57.246Z,101289
2017-12-25T03:24:25.502Z,101288
2017-12-25T03:26:53.880Z,101282
2017-12-25T03:29:22.213Z,101292
2017-12-25T03:31:51.348Z,101278
2017-12-25T03:34:20.069Z,101288
2017-12-25T03:36:48.284Z,101297
2017-12-25T03:39:17.193Z,101284
2017-12-25T03:41:45.408Z,101280
2017-12-25T03:44:13.670Z,101283
2017-12-25T03:46:41.901Z,101280
2017-12-25T03:49:10.131Z,101276
2017-12-25T03:51:39.201Z,101265
2017-12-25T03:54:07.552Z,101273
2017-12-25T03:56:35.801Z,101269
2017-12-25T03:59:04.811Z,101274
2017-12-25T04:01:33.082Z,101271
2017-12-25T04:04:01.367Z,101270
2017-12-25T04:06:29.653Z,101265
2017-12-25T04:08:57.887Z,101268
2017-12-25T04:11:26.895Z,101270
2017-12-25T04:13:55.926Z,101259
2017-12-25T04:16:24.143Z,101267
2017-12-25T04:18:52.374Z,101258
2017-12-25T04:21:20.650Z,101262
2017-12-25T04:23:48.869Z,101258
2017-12-25T04:26:17.150Z,101259
2017-12-25T04:28:46.123Z,101257
2017-12-25T04:31:14.339Z,101254
2017-12-25T04:33:42.550Z,101254
2017-12-25T04:36:10.782Z,101259
2017-12-25T04:38:38.998Z,101250
2017-12-25T04:41:07.214Z,101246
2017-12-25T04:43:35.447Z,101246
2017-12-25T04:46:03.659Z,101252
2017-12-25T04:48:32.648Z,101245
2017-12-25T04:51:01.632Z,101246
2017-12-25T04:53:29.867Z,101247
2017-12-25T04:55:58.095Z,101246
2017-12-25T04:58:27.150Z,101239
2017-12-25T05:00:55.398Z,101237
2017-12-25T05:03:23.619Z,101231
2017-12-25T05:05:51.866Z,101237
2017-12-25T05:08:20.071Z,101248
2017-12-25T05:10:49.090Z,101245
2017-12-25T05:13:17.316Z,101239
2017-12-25T05:15:45.536Z,101243
2017-12-25T05:18:13.755Z,101233
2017-12-25T05:20:41.978Z,101239
2017-12-25T05:23:10.186Z,101230
2017-12-25T05:25:38.443Z,101234
2017-12-25T05:28:06.810Z,101229
2017-12-25T05:30:35.805Z,101216
2017-12-25T05:33:04.031Z,101227
2017-12-25T05:35:32.303Z,101228
2017-12-25T05:38:00.518Z,101214
2017-12-25T05:40:29.496Z,101227
2017-12-25T05:42:58.505Z,101221
2017-12-25T05:45:26.735Z,101218
2017-12-25T05:47:54.920Z,101221
2017-12-25T05:50:23.138Z,101215
2017-12-25T05:52:52.121Z,101221
2017-12-25T05:55:21.129Z,101223
2017-12-25T05:57:49.394Z,101222
2017-12-25T06:00:17.643Z,101226
2017-12-25T06:02:45.872Z,101234
2017-12-25T06:05:14.189Z,101220
2017-12-25T06:07:42.574Z,101219
2017-12-25T06:10:10.790Z,101222
2017-12-25T06:12:39.003Z,101219
2017-12-25T06:15:07.234Z,101215
2017-12-25T06:17:35.483Z,101220
2017-12-25T06:20:04.483Z,101217
2017-12-25T06:22:32.734Z,101223
2017-12-25T06:25:01.013Z,101225
2017-12-25T06:27:36.213Z,101222
2017-12-25T06:30:05.531Z,101224
2017-12-25T06:32:33.803Z,101232
2017-12-25T06:35:02.074Z,101224
2017-12-25T06:37:30.381Z,101218
2017-12-25T06:39:59.384Z,101212
2017-12-25T06:42:27.742Z,101207
2017-12-25T06:44:56.035Z,101210
2017-12-25T06:47:25.096Z,101213
2017-12-25T06:49:53.364Z,101202
2017-12-25T06:52:21.657Z,101203
2017-12-25T06:54:50.017Z,101200
2017-12-25T06:57:18.256Z,101196
2017-12-25T06:59:46.520Z,101210
2017-12-25T07:02:14.753Z,101210
2017-12-25T07:04:43.066Z,101202
2017-12-25T07:07:12.102Z,101197
2017-12-25T07:09:40.394Z,101195
2017-12-25T07:12:08.637Z,101188
2017-12-25T07:14:36.879Z,101186
2017-12-25T07:17:05.172Z,101188
2017-12-25T07:19:33.433Z,101174
2017-12-25T07:22:01.687Z,101184
2017-12-25T07:24:29.932Z,101176
2017-12-25T07:26:58.202Z,101169
2017-12-25T07:29:27.346Z,101174
2017-12-25T07:31:56.459Z,101189
2017-12-25T07:34:25.470Z,101182
2017-12-25T07:36:53.714Z,101177
2017-12-25T07:39:22.004Z,101179
2017-12-25T07:41:50.309Z,101175
2017-12-25T07:44:19.247Z,101184
2017-12-25T07:46:48.313Z,101176
2017-12-25T07:49:16.648Z,101173
2017-12-25T07:51:45.057Z,101172
2017-12-25T07:54:13.380Z,101179
2017-12-25T07:56:41.788Z,101188
2017-12-25T07:59:10.152Z,101177
2017-12-25T08:01:38.597Z,101186
2017-12-25T08:04:06.865Z,101184
2017-12-25T08:06:35.173Z,101176
2017-12-25T08:09:03.467Z,101179
2017-12-25T08:11:31.820Z,101171
2017-12-25T08:14:00.194Z,101173
2017-12-25T08:16:29.269Z,101177
2017-12-25T08:18:58.357Z,101185
2017-12-25T08:21:26.587Z,101187
2017-12-25T08:23:54.853Z,101181
2017-12-25T08:26:23.142Z,101185
2017-12-25T08:28:51.470Z,101176
2017-12-25T08:31:20.499Z,101180
2017-12-25T08:33:48.753Z,101176
2017-12-25T08:36:17.846Z,101183
2017-12-25T08:38:46.163Z,101180
2017-12-25T08:41:14.484Z,101178
2017-12-25T08:43:43.644Z,101173
2017-12-25T08:46:11.950Z,101178
2017-12-25T08:48:41.070Z,101175
2017-12-25T08:51:09.364Z,101177
2017-12-25T08:53:37.655Z,101177
2017-12-25T08:56:05.904Z,101175
2017-12-25T08:58:34.176Z,101181
2017-12-25T09:01:02.518Z,101174
2017-12-25T09:03:30.782Z,101177
2017-12-25T09:05:59.034Z,101178
2017-12-25T09:08:27.258Z,101176
2017-12-25T09:10:56.311Z,101172
2017-12-25T09:13:24.588Z,101176
2017-12-25T09:15:52.821Z,101174
2017-12-25T09:18:21.090Z,101177
2017-12-25T09:20:50.525Z,101185
2017-12-25T09:23:19.624Z,101176
2017-12-25T09:25:48.037Z,101182
2017-12-25T09:28:16.465Z,101181
2017-12-25T09:30:44.768Z,101185
2017-12-25T09:33:13.049Z,101189
2017-12-25T09:35:41.343Z,101190
2017-12-25T09:38:09.647Z,101188
2017-12-25T09:40:38.010Z,101178
2017-12-25T09:43:07.160Z,101188
2017-12-25T09:45:35.534Z,101187
2017-12-25T09:48:03.761Z,101187
2017-12-25T09:50:32.812Z,101181
2017-12-25T09:53:01.133Z,101173
2017-12-25T09:55:30.155Z,101171
2017-12-25T09:57:58.415Z,101171
2017-12-25T10:00:26.883Z,101174
2017-12-25T10:02:55.933Z,101172
2017-12-25T10:08:02.155Z,101172
2017-12-25T10:10:30.531Z,101176
2017-12-25T10:12:58.825Z,101170
2017-12-25T10:15:27.170Z,101166
2017-12-25T10:17:57.347Z,101166
2017-12-25T10:20:26.505Z,101164
2017-12-25T10:22:54.850Z,101160
2017-12-25T10:25:23.905Z,101161
2017-12-25T10:27:52.268Z,101150
2017-12-25T10:30:20.532Z,101149
2017-12-25T10:32:48.858Z,101151
2017-12-25T10:35:17.979Z,101148
2017-12-25T10:37:46.388Z,101144
2017-12-25T10:40:14.718Z,101138
2017-12-25T10:42:43.084Z,101143
2017-12-25T10:45:11.319Z,101141
2017-12-25T10:47:39.657Z,101135
2017-12-25T10:50:07.885Z,101140
2017-12-25T10:52:36.168Z,101137
2017-12-25T10:55:04.494Z,101132
2017-12-25T10:57:33.568Z,101121
2017-12-25T11:00:02.430Z,101116
2017-12-25T11:02:30.719Z,101119
2017-12-25T11:04:58.994Z,101116
2017-12-25T11:07:27.763Z,101119
2017-12-25T11:09:56.080Z,101121
2017-12-25T11:12:25.287Z,101111
2017-12-25T11:14:54.425Z,101121
2017-12-25T11:17:22.716Z,101117
2017-12-25T11:19:51.989Z,101116
2017-12-25T11:22:20.294Z,101119
2017-12-25T11:24:48.538Z,101107
2017-12-25T11:27:16.904Z,101105
2017-12-25T11:29:45.311Z,101104
2017-12-25T11:32:13.650Z,101099
2017-12-25T11:34:42.699Z,101094
2017-12-25T11:37:10.972Z,101095
2017-12-25T11:39:40.716Z,101092
2017-12-25T11:42:09.853Z,101083
2017-12-25T11:44:39.773Z,101088
2017-12-25T11:47:08.778Z,101083
2017-12-25T11:49:37.071Z,101079
2017-12-25T11:52:05.358Z,101075
2017-12-25T11:54:34.071Z,101067
2017-12-25T11:57:03.947Z,101075
2017-12-25T11:59:32.290Z,101066
2017-12-25T12:02:00.567Z,101070
2017-12-25T12:04:28.799Z,101059
2017-12-25T12:06:57.899Z,101057
2017-12-25T12:09:26.943Z,101056
2017-12-25T12:11:55.247Z,101052
2017-12-25T12:14:23.538Z,101057
2017-12-25T12:16:52.588Z,101059
2017-12-25T12:19:22.093Z,101049
2017-12-25T12:21:52.467Z,101038
2017-12-25T12:24:21.499Z,101038
2017-12-25T12:26:50.557Z,101040
2017-12-25T12:29:18.811Z,101029
2017-12-25T12:31:47.093Z,101049
2017-12-25T12:34:16.239Z,101045
2017-12-25T12:36:45.476Z,101025
2017-12-25T12:39:13.871Z,101033
2017-12-25T12:41:42.945Z,101036
2017-12-25T12:44:11.791Z,101031
2017-12-25T12:46:40.071Z,101041
2017-12-25T12:49:09.278Z,101030
2017-12-25T12:51:37.583Z,101032
2017-12-25T12:54:05.868Z,101022
2017-12-25T12:56:34.139Z,101023
2017-12-25T12:59:03.957Z,101017
2017-12-25T13:01:32.993Z,101017
2017-12-25T13:04:01.261Z,101017
2017-12-25T13:06:29.501Z,101012
2017-12-25T13:08:58.554Z,101019
2017-12-25T13:11:27.886Z,101017
2017-12-25T13:13:56.179Z,101015
2017-12-25T13:16:25.312Z,101010
2017-12-25T13:18:53.594Z,100997
2017-12-25T13:21:21.868Z,100995
2017-12-25T13:23:50.157Z,100984
2017-12-25T13:26:18.462Z,100976
2017-12-25T13:28:47.544Z,100971
2017-12-25T13:31:16.727Z,100978
2017-12-25T13:33:44.981Z,100978
2017-12-25T13:36:13.341Z,100982
2017-12-25T13:38:41.574Z,100982
2017-12-25T13:41:09.826Z,100982
2017-12-25T13:43:38.118Z,100988
2017-12-25T13:46:06.388Z,100981
2017-12-25T13:48:34.669Z,100979
2017-12-25T13:51:03.056Z,100970
2017-12-25T13:53:32.008Z,100970
2017-12-25T13:56:01.061Z,100970
2017-12-25T13:58:30.197Z,100970
2017-12-25T14:00:58.992Z,100970
2017-12-25T14:03:27.427Z,100974
2017-12-25T14:05:57.513Z,100960
2017-12-25T14:08:26.407Z,100972
2017-12-25T14:10:54.648Z,100970
2017-12-25T14:13:22.891Z,100974
2017-12-25T14:15:51.178Z,100971
2017-12-25T14:18:19.455Z,100958
2017-12-25T14:20:47.745Z,100956
2017-12-25T14:23:16.021Z,100959
2017-12-25T14:25:44.540Z,100962
2017-12-25T14:28:13.573Z,100950
2017-12-25T14:30:41.931Z,100949
2017-12-25T14:33:10.929Z,100951
2017-12-25T14:35:39.930Z,100946
2017-12-25T14:38:08.207Z,100946
2017-12-25T14:40:36.431Z,100952
2017-12-25T14:43:04.676Z,100952
2017-12-25T14:45:32.948Z,100952
2017-12-25T14:48:01.240Z,100955
2017-12-25T14:50:29.492Z,100947
2017-12-25T14:52:57.757Z,100941
2017-12-25T14:55:26.026Z,100947
2017-12-25T14:57:54.260Z,100944
2017-12-25T15:00:22.540Z,100936
2017-12-25T15:02:51.598Z,100943
2017-12-25T15:05:19.857Z,100935
2017-12-25T15:07:48.084Z,100944
2017-12-25T15:10:16.313Z,100939
2017-12-25T15:12:44.559Z,100941
2017-12-25T15:15:13.580Z,100930
2017-12-25T15:17:41.871Z,100927
2017-12-25T15:20:10.224Z,100921
2017-12-25T15:22:38.500Z,100922
2017-12-25T15:25:06.748Z,100913
2017-12-25T15:27:34.987Z,100901
2017-12-25T15:30:03.220Z,100908
2017-12-25T15:32:31.467Z,100902
2017-12-25T15:35:00.475Z,100912
2017-12-25T15:37:29.541Z,100902
2017-12-25T15:39:57.782Z,100899
2017-12-25T15:42:26.044Z,100893
2017-12-25T15:44:54.294Z,100898
2017-12-25T15:47:23.313Z,100899
2017-12-25T15:49:51.534Z,100900
2017-12-25T15:52:19.771Z,100892
2017-12-25T15:54:47.976Z,100889
2017-12-25T15:57:16.197Z,100886
2017-12-25T15:59:44.424Z,100889
2017-12-25T16:02:12.634Z,100880
2017-12-25T16:04:40.862Z,100877
2017-12-25T16:07:09.133Z,100866
2017-12-25T16:09:37.381Z,100876
2017-12-25T16:12:06.408Z,100871
2017-12-25T16:14:34.642Z,100871
2017-12-25T16:17:02.850Z,100873
2017-12-25T16:19:31.080Z,100878
2017-12-25T16:21:59.305Z,100877
2017-12-25T16:24:27.526Z,100871
2017-12-25T16:26:55.756Z,100876
2017-12-25T16:29:23.974Z,100861
2017-12-25T16:31:52.237Z,100870
2017-12-25T16:34:22.130Z,100862
2017-12-25T16:36:50.347Z,100861
2017-12-25T16:39:18.583Z,100855
2017-12-25T16:41:46.816Z,100868
2017-12-25T16:44:15.035Z,100863
2017-12-25T16:46:43.264Z,100855
2017-12-25T16:49:11.485Z,100854
2017-12-25T16:51:40.472Z,100856
2017-12-25T16:54:08.761Z,100859
2017-12-25T16:56:36.956Z,100857
2017-12-25T16:59:05.280Z,100866
2017-12-25T17:01:33.534Z,100858
2017-12-25T17:04:01.773Z,100863
2017-12-25T17:06:30.025Z,100852
2017-12-25T17:08:58.299Z,100850
2017-12-25T17:11:27.324Z,100853
2017-12-25T17:13:55.617Z,100845
2017-12-25T17:16:23.866Z,100843
2017-12-25T17:18:52.098Z,100839
2017-12-25T17:21:20.320Z,100827
2017-12-25T17:23:48.534Z,100825
2017-12-25T17:26:16.762Z,100831
2017-12-25T17:28:45.014Z,100829
2017-12-25T17:31:14.027Z,100824
2017-12-25T17:33:42.276Z,100820
2017-12-25T17:36:10.515Z,100819
2017-12-25T17:38:38.767Z,100830
2017-12-25T17:41:07.007Z,100825
2017-12-25T17:43:35.241Z,100815
2017-12-25T17:46:03.633Z,100823
2017-12-25T17:48:31.896Z,100828
2017-12-25T17:51:00.143Z,100816
2017-12-25T17:53:28.364Z,100809
2017-12-25T17:55:56.601Z,100805
2017-12-25T17:58:24.867Z,100802
2017-12-25T18:00:53.111Z,100814
2017-12-25T18:03:22.115Z,100810
2017-12-25T18:05:50.364Z,100802
2017-12-25T18:08:18.946Z,100797
2017-12-25T18:10:48.000Z,100804
2017-12-25T18:13:16.246Z,100797
2017-12-25T18:15:44.503Z,100800
2017-12-25T18:18:13.547Z,100797
2017-12-25T18:20:42.760Z,100792
2017-12-25T18:23:11.343Z,100777
2017-12-25T18:25:40.685Z,100778
2017-12-25T18:28:08.951Z,100776
2017-12-25T18:30:38.045Z,100770
2017-12-25T18:33:06.306Z,100780
2017-12-25T18:35:34.539Z,100775
2017-12-25T18:38:03.088Z,100770
2017-12-25T18:40:32.890Z,100774
2017-12-25T18:43:02.519Z,100770
2017-12-25T18:45:31.402Z,100755
2017-12-25T18:47:59.744Z,100753
2017-12-25T18:50:28.114Z,100755
2017-12-25T18:52:56.356Z,100750
2017-12-25T18:55:24.594Z,100749
2017-12-25T18:57:53.616Z,100753
2017-12-25T19:00:22.685Z,100742
2017-12-25T19:02:52.586Z,100730
2017-12-25T19:05:23.010Z,100748
2017-12-25T19:07:54.065Z,100739
2017-12-25T19:10:22.911Z,100723
2017-12-25T19:12:51.205Z,100709
2017-12-25T19:15:19.506Z,100714
2017-12-25T19:17:48.566Z,100706
2017-12-25T19:20:16.886Z,100700
2017-12-25T19:22:45.161Z,100696
2017-12-25T19:25:13.388Z,100688
2017-12-25T19:27:41.677Z,100683
2017-12-25T19:30:10.778Z,100687
2017-12-25T19:32:39.778Z,100681
2017-12-25T19:35:08.952Z,100679
2017-12-25T19:37:37.186Z,100681
2017-12-25T19:40:06.393Z,100678
2017-12-25T19:42:34.728Z,100671
2017-12-25T19:45:03.829Z,100668
2017-12-25T19:47:32.904Z,100669
2017-12-25T19:50:01.942Z,100659
2017-12-25T19:52:30.394Z,100659
2017-12-25T19:54:59.594Z,100659
2017-12-25T19:57:28.641Z,100652
2017-12-25T19:59:56.884Z,100650
2017-12-25T20:02:25.240Z,100657
2017-12-25T20:04:54.249Z,100653
2017-12-25T20:07:22.598Z,100652
2017-12-25T20:09:51.634Z,100646
2017-12-25T20:12:19.950Z,100646
2017-12-25T20:14:48.221Z,100637
2017-12-25T20:17:16.488Z,100637
2017-12-25T20:19:44.732Z,100631
2017-12-25T20:22:13.774Z,100625
2017-12-25T20:24:42.105Z,100623
2017-12-25T20:27:10.460Z,100614
2017-12-25T20:29:38.755Z,100623
2017-12-25T20:32:07.606Z,100615
2017-12-25T20:34:36.688Z,100608
2017-12-25T20:37:06.819Z,100611
2017-12-25T20:39:35.842Z,100603
2017-12-25T20:42:04.074Z,100609
2017-12-25T20:44:32.413Z,100611
2017-12-25T20:47:00.662Z,100598
2017-12-25T20:49:29.891Z,100590
2017-12-25T20:51:58.528Z,100581
2017-12-25T20:54:27.527Z,100579
2017-12-25T20:56:55.780Z,100573
2017-12-25T20:59:24.879Z,100569
2017-12-25T21:01:53.938Z,100569
2017-12-25T21:04:22.163Z,100550
2017-12-25T21:06:50.454Z,100546
2017-12-25T21:09:18.843Z,100537
2017-12-25T21:11:47.129Z,100537
2017-12-25T21:14:15.411Z,100538
2017-12-25T21:16:43.645Z,100534
2017-12-25T21:19:11.896Z,100544
2017-12-25T21:21:40.956Z,100531
2017-12-25T21:24:10.023Z,100543
2017-12-25T21:26:38.383Z,100531
2017-12-25T21:29:06.601Z,100525
2017-12-25T21:31:35.789Z,100524
2017-12-25T21:34:04.140Z,100524
2017-12-25T21:36:32.449Z,100515
2017-12-25T21:39:00.702Z,100524
2017-12-25T21:41:29.045Z,100529
2017-12-25T21:43:58.131Z,100517
2017-12-25T21:46:27.166Z,100515
2017-12-25T21:48:55.483Z,100517
2017-12-25T21:51:23.823Z,100504
2017-12-25T21:53:52.177Z,100504
2017-12-25T21:56:20.459Z,100495
2017-12-25T21:58:48.739Z,100497
2017-12-25T22:01:17.006Z,100495
2017-12-25T22:03:45.300Z,100482
2017-12-25T22:06:13.536Z,100491
2017-12-25T22:08:42.599Z,100493
2017-12-25T22:11:10.942Z,100489
2017-12-25T22:13:41.675Z,100485
2017-12-25T22:16:10.162Z,100483
2017-12-25T22:18:39.201Z,100477
2017-12-25T22:21:08.305Z,100471
2017-12-25T22:23:37.340Z,100473
2017-12-25T22:26:05.682Z,100470
2017-12-25T22:28:34.722Z,100458
2017-12-25T22:31:03.067Z,100451
2017-12-25T22:33:31.886Z,100456
2017-12-25T22:36:00.195Z,100464
2017-12-25T22:38:28.425Z,100453
2017-12-25T22:40:56.711Z,100445
2017-12-25T22:43:24.962Z,100438
2017-12-25T22:45:53.206Z,100433
2017-12-25T22:48:22.223Z,100438
2017-12-25T22:50:50.521Z,100427
2017-12-25T22:53:18.820Z,100426
2017-12-25T22:55:47.713Z,100417
2017-12-25T22:58:16.004Z,100422
2017-12-25T23:00:46.315Z,100414
2017-12-25T23:03:14.652Z,100400
2017-12-25T23:05:42.973Z,100403
2017-12-25T23:08:11.375Z,100393
2017-12-25T23:10:41.556Z,100382
2017-12-25T23:13:11.362Z,100382
2017-12-25T23:15:39.680Z,100374
2017-12-25T23:18:08.696Z,100380
2017-12-25T23:20:37.006Z,100365
2017-12-25T23:23:05.358Z,100365
2017-12-25T23:25:33.623Z,100367
2017-12-25T23:28:01.968Z,100356
2017-12-25T23:30:30.291Z,100349
2017-12-25T23:32:59.486Z,100354
2017-12-25T23:35:28.701Z,100355
2017-12-25T23:37:57.395Z,100354
2017-12-25T23:40:26.273Z,100353
2017-12-25T23:42:54.549Z,100352
2017-12-25T23:45:22.785Z,100349
2017-12-25T23:47:51.793Z,100340
2017-12-25T23:50:20.304Z,100341
2017-12-25T23:52:48.619Z,100336
2017-12-25T23:55:17.705Z,100335
2017-12-25T23:57:47.037Z,100314
